Terminal Aerodrome Forecast
Issued by NWS Sterling, VA

Current Version | Previous Version | Graphics & Text | Print | Product List | Glossary On
Versions: 1 2 3 4 5 6 7 8 9 10 11 12 13 14 15 16 17 18 19 20 21 22 23
000
FTUS41 KLWX 271700
TAFDCA
TAF
KDCA 271737Z 2718/2818 21009KT P6SM SCT050 BKN130
     FM272000 21009KT P6SM VCTS BKN050CB BKN130
     FM280000 20010KT 5SM TSRA BKN050CB BKN130
     FM280400 22011KT P6SM VCTS BKN050CB BKN130
     FM280600 23011KT P6SM BKN050 BKN130
     FM280800 25009KT P6SM FEW050 SCT130
     FM281300 27013KT P6SM SCT050=

USA.gov is the U.S. government's official web portal to all federal, state and local government web resources and services.